sensor_id;sensor_type;location;lat;lon;timestamp;P1;durP1;ratioP1;P2;durP2;ratioP2
46653;SDS011;38960;51.074;17.004;2023-03-12T00:01:16;10.50;;;6.27;;
46653;SDS011;38960;51.074;17.004;2023-03-12T00:03:43;15.30;;;6.87;;
46653;SDS011;38960;51.074;17.004;2023-03-12T00:06:09;14.23;;;6.83;;
46653;SDS011;38960;51.074;17.004;2023-03-12T00:08:35;12.80;;;6.23;;
46653;SDS011;38960;51.074;17.004;2023-03-12T00:11:04;11.70;;;6.37;;
46653;SDS011;38960;51.074;17.004;2023-03-12T00:13:30;10.43;;;6.23;;
46653;SDS011;38960;51.074;17.004;2023-03-12T00:15:56;10.00;;;5.67;;
46653;SDS011;38960;51.074;17.004;2023-03-12T00:18:27;11.82;;;6.25;;
46653;SDS011;38960;51.074;17.004;2023-03-12T00:20:53;8.67;;;5.00;;
46653;SDS011;38960;51.074;17.004;2023-03-12T00:23:19;10.17;;;5.73;;
46653;SDS011;38960;51.074;17.004;2023-03-12T00:25:45;10.77;;;6.00;;
46653;SDS011;38960;51.074;17.004;2023-03-12T00:28:10;10.47;;;6.43;;
46653;SDS011;38960;51.074;17.004;2023-03-12T00:30:36;12.40;;;5.90;;
46653;SDS011;38960;51.074;17.004;2023-03-12T00:33:01;11.83;;;7.00;;
46653;SDS011;38960;51.074;17.004;2023-03-12T00:35:27;9.17;;;5.27;;
46653;SDS011;38960;51.074;17.004;2023-03-12T00:37:52;9.73;;;5.07;;
46653;SDS011;38960;51.074;17.004;2023-03-12T00:40:18;11.00;;;4.77;;
46653;SDS011;38960;51.074;17.004;2023-03-12T00:42:44;9.07;;;5.27;;
46653;SDS011;38960;51.074;17.004;2023-03-12T00:45:09;10.90;;;5.63;;
46653;SDS011;38960;51.074;17.004;2023-03-12T00:47:35;9.87;;;5.57;;
46653;SDS011;38960;51.074;17.004;2023-03-12T00:50:01;13.60;;;5.60;;
46653;SDS011;38960;51.074;17.004;2023-03-12T00:52:27;11.03;;;5.20;;
46653;SDS011;38960;51.074;17.004;2023-03-12T00:54:53;9.27;;;4.57;;
46653;SDS011;38960;51.074;17.004;2023-03-12T00:57:22;8.37;;;5.10;;
46653;SDS011;38960;51.074;17.004;2023-03-12T00:59:48;9.60;;;5.07;;
46653;SDS011;38960;51.074;17.004;2023-03-12T01:02:13;10.57;;;4.90;;
46653;SDS011;38960;51.074;17.004;2023-03-12T01:04:39;8.67;;;4.83;;
46653;SDS011;38960;51.074;17.004;2023-03-12T01:07:04;10.23;;;4.40;;
46653;SDS011;38960;51.074;17.004;2023-03-12T01:09:30;8.67;;;4.23;;
46653;SDS011;38960;51.074;17.004;2023-03-12T01:11:55;7.27;;;3.87;;
46653;SDS011;38960;51.074;17.004;2023-03-12T01:14:21;6.20;;;3.50;;
46653;SDS011;38960;51.074;17.004;2023-03-12T01:16:48;7.83;;;4.03;;
46653;SDS011;38960;51.074;17.004;2023-03-12T01:19:14;7.73;;;3.80;;
46653;SDS011;38960;51.074;17.004;2023-03-12T01:21:40;10.03;;;4.40;;
46653;SDS011;38960;51.074;17.004;2023-03-12T01:24:05;8.80;;;4.00;;
46653;SDS011;38960;51.074;17.004;2023-03-12T01:26:31;7.23;;;3.87;;
46653;SDS011;38960;51.074;17.004;2023-03-12T01:28:57;9.77;;;4.63;;
46653;SDS011;38960;51.074;17.004;2023-03-12T01:31:23;5.47;;;3.17;;
46653;SDS011;38960;51.074;17.004;2023-03-12T01:33:49;9.33;;;4.13;;
46653;SDS011;38960;51.074;17.004;2023-03-12T01:36:17;6.83;;;3.63;;
46653;SDS011;38960;51.074;17.004;2023-03-12T01:38:49;6.13;;;3.35;;
46653;SDS011;38960;51.074;17.004;2023-03-12T01:41:15;6.83;;;3.60;;
46653;SDS011;38960;51.074;17.004;2023-03-12T01:43:41;8.60;;;3.40;;
46653;SDS011;38960;51.074;17.004;2023-03-12T01:49:01;6.60;;;3.50;;
46653;SDS011;38960;51.074;17.004;2023-03-12T01:54:07;5.47;;;2.67;;
46653;SDS011;38960;51.074;17.004;2023-03-12T01:56:36;7.87;;;3.50;;
46653;SDS011;38960;51.074;17.004;2023-03-12T01:59:05;10.23;;;2.90;;
46653;SDS011;38960;51.074;17.004;2023-03-12T02:01:34;5.32;;;2.95;;
46653;SDS011;38960;51.074;17.004;2023-03-12T02:03:59;5.43;;;3.27;;
46653;SDS011;38960;51.074;17.004;2023-03-12T02:06:29;12.10;;;4.20;;
46653;SDS011;38960;51.074;17.004;2023-03-12T02:08:59;6.97;;;2.80;;
46653;SDS011;38960;51.074;17.004;2023-03-12T02:11:25;4.53;;;2.67;;
46653;SDS011;38960;51.074;17.004;2023-03-12T02:13:51;6.43;;;2.70;;
46653;SDS011;38960;51.074;17.004;2023-03-12T02:16:17;6.87;;;2.70;;
46653;SDS011;38960;51.074;17.004;2023-03-12T02:18:44;8.67;;;2.80;;
46653;SDS011;38960;51.074;17.004;2023-03-12T02:21:19;11.93;;;3.53;;
46653;SDS011;38960;51.074;17.004;2023-03-12T02:26:21;7.53;;;2.77;;
46653;SDS011;38960;51.074;17.004;2023-03-12T02:28:49;6.70;;;2.70;;
46653;SDS011;38960;51.074;17.004;2023-03-12T02:31:16;6.30;;;2.33;;
46653;SDS011;38960;51.074;17.004;2023-03-12T02:33:45;6.23;;;2.27;;
46653;SDS011;38960;51.074;17.004;2023-03-12T02:36:10;6.93;;;2.40;;
46653;SDS011;38960;51.074;17.004;2023-03-12T02:41:09;4.40;;;2.17;;
46653;SDS011;38960;51.074;17.004;2023-03-12T02:46:02;8.73;;;2.50;;
46653;SDS011;38960;51.074;17.004;2023-03-12T02:48:27;5.73;;;2.00;;
46653;SDS011;38960;51.074;17.004;2023-03-12T02:50:53;3.67;;;2.20;;
46653;SDS011;38960;51.074;17.004;2023-03-12T02:53:19;3.77;;;2.07;;
46653;SDS011;38960;51.074;17.004;2023-03-12T02:55:44;5.23;;;2.40;;
46653;SDS011;38960;51.074;17.004;2023-03-12T02:58:10;4.73;;;2.27;;
46653;SDS011;38960;51.074;17.004;2023-03-12T03:00:35;2.93;;;1.90;;
46653;SDS011;38960;51.074;17.004;2023-03-12T03:03:02;5.37;;;2.13;;
46653;SDS011;38960;51.074;17.004;2023-03-12T03:05:27;5.83;;;2.17;;
46653;SDS011;38960;51.074;17.004;2023-03-12T03:07:53;5.10;;;2.37;;
46653;SDS011;38960;51.074;17.004;2023-03-12T03:10:19;8.00;;;2.60;;
46653;SDS011;38960;51.074;17.004;2023-03-12T03:12:44;4.40;;;1.67;;
46653;SDS011;38960;51.074;17.004;2023-03-12T03:15:11;4.50;;;2.23;;
46653;SDS011;38960;51.074;17.004;2023-03-12T03:17:36;4.77;;;2.03;;
46653;SDS011;38960;51.074;17.004;2023-03-12T03:20:03;4.93;;;1.93;;
46653;SDS011;38960;51.074;17.004;2023-03-12T03:22:32;6.23;;;2.13;;
46653;SDS011;38960;51.074;17.004;2023-03-12T03:24:58;10.97;;;2.33;;
46653;SDS011;38960;51.074;17.004;2023-03-12T03:27:24;8.20;;;2.37;;
46653;SDS011;38960;51.074;17.004;2023-03-12T03:29:51;4.97;;;2.30;;
46653;SDS011;38960;51.074;17.004;2023-03-12T03:32:16;4.70;;;2.10;;
46653;SDS011;38960;51.074;17.004;2023-03-12T03:34:42;4.93;;;2.90;;
46653;SDS011;38960;51.074;17.004;2023-03-12T03:37:08;4.03;;;1.80;;
46653;SDS011;38960;51.074;17.004;2023-03-12T03:39:34;5.87;;;2.20;;
46653;SDS011;38960;51.074;17.004;2023-03-12T03:42:00;7.10;;;2.17;;
46653;SDS011;38960;51.074;17.004;2023-03-12T03:44:28;5.33;;;1.97;;
46653;SDS011;38960;51.074;17.004;2023-03-12T03:46:55;4.77;;;2.30;;
46653;SDS011;38960;51.074;17.004;2023-03-12T03:49:21;4.10;;;1.70;;
46653;SDS011;38960;51.074;17.004;2023-03-12T03:51:47;5.47;;;1.90;;
46653;SDS011;38960;51.074;17.004;2023-03-12T03:54:19;5.93;;;1.80;;
46653;SDS011;38960;51.074;17.004;2023-03-12T03:56:44;7.43;;;2.00;;
46653;SDS011;38960;51.074;17.004;2023-03-12T03:59:12;3.30;;;1.93;;
46653;SDS011;38960;51.074;17.004;2023-03-12T04:01:39;2.90;;;1.77;;
46653;SDS011;38960;51.074;17.004;2023-03-12T04:04:05;4.93;;;2.20;;
46653;SDS011;38960;51.074;17.004;2023-03-12T04:06:32;6.37;;;1.93;;
46653;SDS011;38960;51.074;17.004;2023-03-12T04:08:58;3.77;;;1.77;;
46653;SDS011;38960;51.074;17.004;2023-03-12T04:11:25;3.97;;;1.80;;
46653;SDS011;38960;51.074;17.004;2023-03-12T04:13:51;4.10;;;2.10;;
46653;SDS011;38960;51.074;17.004;2023-03-12T04:16:21;5.93;;;1.73;;
46653;SDS011;38960;51.074;17.004;2023-03-12T04:18:48;5.57;;;1.80;;
46653;SDS011;38960;51.074;17.004;2023-03-12T04:21:15;3.40;;;1.60;;
46653;SDS011;38960;51.074;17.004;2023-03-12T04:23:42;7.13;;;1.90;;
46653;SDS011;38960;51.074;17.004;2023-03-12T04:26:09;4.43;;;1.77;;
46653;SDS011;38960;51.074;17.004;2023-03-12T04:28:35;5.17;;;2.43;;
46653;SDS011;38960;51.074;17.004;2023-03-12T04:31:03;5.33;;;1.60;;
46653;SDS011;38960;51.074;17.004;2023-03-12T04:33:38;5.63;;;1.70;;
46653;SDS011;38960;51.074;17.004;2023-03-12T04:36:04;6.20;;;2.10;;
46653;SDS011;38960;51.074;17.004;2023-03-12T04:38:31;3.13;;;1.77;;
46653;SDS011;38960;51.074;17.004;2023-03-12T04:41:02;4.87;;;1.77;;
46653;SDS011;38960;51.074;17.004;2023-03-12T04:45:55;4.20;;;1.60;;
46653;SDS011;38960;51.074;17.004;2023-03-12T04:48:21;6.10;;;2.33;;
46653;SDS011;38960;51.074;17.004;2023-03-12T04:50:49;5.40;;;2.10;;
46653;SDS011;38960;51.074;17.004;2023-03-12T04:53:15;6.30;;;1.80;;
46653;SDS011;38960;51.074;17.004;2023-03-12T04:55:41;4.60;;;2.00;;
46653;SDS011;38960;51.074;17.004;2023-03-12T04:58:07;5.50;;;1.60;;
46653;SDS011;38960;51.074;17.004;2023-03-12T05:00:32;3.10;;;1.80;;
46653;SDS011;38960;51.074;17.004;2023-03-12T05:02:58;7.93;;;1.80;;
46653;SDS011;38960;51.074;17.004;2023-03-12T05:05:24;3.83;;;1.50;;
46653;SDS011;38960;51.074;17.004;2023-03-12T05:07:49;3.80;;;1.67;;
46653;SDS011;38960;51.074;17.004;2023-03-12T05:10:16;3.33;;;1.87;;
46653;SDS011;38960;51.074;17.004;2023-03-12T05:12:42;3.10;;;1.60;;
46653;SDS011;38960;51.074;17.004;2023-03-12T05:15:08;2.93;;;1.50;;
46653;SDS011;38960;51.074;17.004;2023-03-12T05:17:34;5.57;;;1.87;;
46653;SDS011;38960;51.074;17.004;2023-03-12T05:20:00;3.60;;;1.63;;
46653;SDS011;38960;51.074;17.004;2023-03-12T05:22:25;6.47;;;1.63;;
46653;SDS011;38960;51.074;17.004;2023-03-12T05:24:52;6.10;;;2.10;;
46653;SDS011;38960;51.074;17.004;2023-03-12T05:27:18;3.90;;;1.70;;
46653;SDS011;38960;51.074;17.004;2023-03-12T05:29:44;5.40;;;2.10;;
46653;SDS011;38960;51.074;17.004;2023-03-12T05:32:10;6.73;;;2.30;;
46653;SDS011;38960;51.074;17.004;2023-03-12T05:34:36;8.00;;;1.93;;
46653;SDS011;38960;51.074;17.004;2023-03-12T05:37:01;3.37;;;1.70;;
46653;SDS011;38960;51.074;17.004;2023-03-12T05:39:28;4.53;;;2.10;;
46653;SDS011;38960;51.074;17.004;2023-03-12T05:41:58;3.50;;;1.60;;
46653;SDS011;38960;51.074;17.004;2023-03-12T05:44:24;5.47;;;2.03;;
46653;SDS011;38960;51.074;17.004;2023-03-12T05:46:53;3.10;;;1.60;;
46653;SDS011;38960;51.074;17.004;2023-03-12T05:49:22;6.37;;;1.50;;
46653;SDS011;38960;51.074;17.004;2023-03-12T05:51:48;5.33;;;1.40;;
46653;SDS011;38960;51.074;17.004;2023-03-12T05:54:14;6.60;;;2.37;;
46653;SDS011;38960;51.074;17.004;2023-03-12T05:56:41;4.83;;;1.93;;
46653;SDS011;38960;51.074;17.004;2023-03-12T05:59:07;6.60;;;2.00;;
46653;SDS011;38960;51.074;17.004;2023-03-12T06:01:35;3.87;;;1.60;;
46653;SDS011;38960;51.074;17.004;2023-03-12T06:04:03;5.30;;;1.40;;
46653;SDS011;38960;51.074;17.004;2023-03-12T06:06:29;7.27;;;1.57;;
46653;SDS011;38960;51.074;17.004;2023-03-12T06:08:56;2.83;;;1.30;;
46653;SDS011;38960;51.074;17.004;2023-03-12T06:11:22;5.47;;;1.40;;
46653;SDS011;38960;51.074;17.004;2023-03-12T06:13:47;5.90;;;1.63;;
46653;SDS011;38960;51.074;17.004;2023-03-12T06:16:23;3.27;;;1.57;;
46653;SDS011;38960;51.074;17.004;2023-03-12T06:18:53;4.40;;;2.03;;
46653;SDS011;38960;51.074;17.004;2023-03-12T06:21:21;5.90;;;1.80;;
46653;SDS011;38960;51.074;17.004;2023-03-12T06:23:49;3.97;;;1.70;;
46653;SDS011;38960;51.074;17.004;2023-03-12T06:26:20;6.23;;;1.90;;
46653;SDS011;38960;51.074;17.004;2023-03-12T06:28:47;3.50;;;1.53;;
46653;SDS011;38960;51.074;17.004;2023-03-12T06:31:14;6.40;;;1.97;;
46653;SDS011;38960;51.074;17.004;2023-03-12T06:33:40;5.67;;;1.77;;
46653;SDS011;38960;51.074;17.004;2023-03-12T06:36:06;5.13;;;2.10;;
46653;SDS011;38960;51.074;17.004;2023-03-12T06:38:33;4.90;;;1.67;;
46653;SDS011;38960;51.074;17.004;2023-03-12T06:40:59;3.97;;;1.50;;
46653;SDS011;38960;51.074;17.004;2023-03-12T06:43:27;5.77;;;1.70;;
46653;SDS011;38960;51.074;17.004;2023-03-12T06:45:54;4.03;;;2.00;;
46653;SDS011;38960;51.074;17.004;2023-03-12T06:48:21;4.03;;;1.83;;
46653;SDS011;38960;51.074;17.004;2023-03-12T06:50:47;8.60;;;2.17;;
46653;SDS011;38960;51.074;17.004;2023-03-12T06:53:13;4.50;;;1.90;;
46653;SDS011;38960;51.074;17.004;2023-03-12T06:55:38;4.50;;;2.00;;
46653;SDS011;38960;51.074;17.004;2023-03-12T06:58:04;8.27;;;2.27;;
46653;SDS011;38960;51.074;17.004;2023-03-12T07:00:30;4.03;;;1.67;;
46653;SDS011;38960;51.074;17.004;2023-03-12T07:02:56;6.40;;;2.47;;
46653;SDS011;38960;51.074;17.004;2023-03-12T07:05:22;3.57;;;1.90;;
46653;SDS011;38960;51.074;17.004;2023-03-12T07:07:48;2.60;;;1.60;;
46653;SDS011;38960;51.074;17.004;2023-03-12T07:10:14;4.07;;;1.67;;
46653;SDS011;38960;51.074;17.004;2023-03-12T07:12:40;5.50;;;2.63;;
46653;SDS011;38960;51.074;17.004;2023-03-12T07:15:06;7.40;;;3.77;;
46653;SDS011;38960;51.074;17.004;2023-03-12T07:17:32;7.87;;;4.03;;
46653;SDS011;38960;51.074;17.004;2023-03-12T07:19:58;7.57;;;2.77;;
46653;SDS011;38960;51.074;17.004;2023-03-12T07:22:23;10.27;;;4.50;;
46653;SDS011;38960;51.074;17.004;2023-03-12T07:24:49;9.10;;;3.00;;
46653;SDS011;38960;51.074;17.004;2023-03-12T07:27:17;6.00;;;2.30;;
46653;SDS011;38960;51.074;17.004;2023-03-12T07:29:43;6.90;;;2.83;;
46653;SDS011;38960;51.074;17.004;2023-03-12T07:32:08;5.53;;;1.83;;
46653;SDS011;38960;51.074;17.004;2023-03-12T07:34:34;5.80;;;2.23;;
46653;SDS011;38960;51.074;17.004;2023-03-12T07:37:00;4.30;;;1.80;;
46653;SDS011;38960;51.074;17.004;2023-03-12T07:39:25;5.95;;;1.75;;
46653;SDS011;38960;51.074;17.004;2023-03-12T07:41:51;3.43;;;1.60;;
46653;SDS011;38960;51.074;17.004;2023-03-12T07:44:17;4.77;;;2.40;;
46653;SDS011;38960;51.074;17.004;2023-03-12T07:46:42;6.17;;;2.00;;
46653;SDS011;38960;51.074;17.004;2023-03-12T07:49:08;10.73;;;1.90;;
46653;SDS011;38960;51.074;17.004;2023-03-12T07:51:34;5.23;;;2.30;;
46653;SDS011;38960;51.074;17.004;2023-03-12T07:53:59;4.37;;;1.60;;
46653;SDS011;38960;51.074;17.004;2023-03-12T07:56:25;6.83;;;2.13;;
46653;SDS011;38960;51.074;17.004;2023-03-12T07:58:50;11.87;;;2.27;;
46653;SDS011;38960;51.074;17.004;2023-03-12T08:01:17;6.50;;;2.13;;
46653;SDS011;38960;51.074;17.004;2023-03-12T08:03:43;5.97;;;2.70;;
46653;SDS011;38960;51.074;17.004;2023-03-12T08:06:08;4.03;;;1.90;;
46653;SDS011;38960;51.074;17.004;2023-03-12T08:08:34;6.80;;;1.83;;
46653;SDS011;38960;51.074;17.004;2023-03-12T08:11:02;6.37;;;2.00;;
46653;SDS011;38960;51.074;17.004;2023-03-12T08:13:31;4.30;;;2.10;;
46653;SDS011;38960;51.074;17.004;2023-03-12T08:15:57;4.93;;;1.80;;
46653;SDS011;38960;51.074;17.004;2023-03-12T08:18:23;3.87;;;1.80;;
46653;SDS011;38960;51.074;17.004;2023-03-12T08:20:49;3.43;;;1.53;;
46653;SDS011;38960;51.074;17.004;2023-03-12T08:23:18;4.47;;;2.10;;
46653;SDS011;38960;51.074;17.004;2023-03-12T08:25:48;7.10;;;2.40;;
46653;SDS011;38960;51.074;17.004;2023-03-12T08:28:15;4.40;;;1.77;;
46653;SDS011;38960;51.074;17.004;2023-03-12T08:30:48;6.60;;;2.13;;
46653;SDS011;38960;51.074;17.004;2023-03-12T08:33:15;5.73;;;1.93;;
46653;SDS011;38960;51.074;17.004;2023-03-12T08:35:43;5.03;;;2.10;;
46653;SDS011;38960;51.074;17.004;2023-03-12T08:38:09;9.33;;;1.93;;
46653;SDS011;38960;51.074;17.004;2023-03-12T08:40:40;4.33;;;2.03;;
46653;SDS011;38960;51.074;17.004;2023-03-12T08:43:09;5.33;;;2.03;;
46653;SDS011;38960;51.074;17.004;2023-03-12T08:45:44;5.93;;;1.93;;
46653;SDS011;38960;51.074;17.004;2023-03-12T08:48:10;5.40;;;2.30;;
46653;SDS011;38960;51.074;17.004;2023-03-12T08:50:35;12.13;;;2.10;;
46653;SDS011;38960;51.074;17.004;2023-03-12T08:53:01;4.33;;;2.17;;
46653;SDS011;38960;51.074;17.004;2023-03-12T08:55:27;6.90;;;2.70;;
46653;SDS011;38960;51.074;17.004;2023-03-12T08:57:55;8.77;;;2.80;;
46653;SDS011;38960;51.074;17.004;2023-03-12T09:00:21;7.70;;;2.73;;
46653;SDS011;38960;51.074;17.004;2023-03-12T09:02:47;7.93;;;2.20;;
46653;SDS011;38960;51.074;17.004;2023-03-12T09:05:14;7.10;;;1.80;;
46653;SDS011;38960;51.074;17.004;2023-03-12T09:07:39;3.07;;;1.90;;
46653;SDS011;38960;51.074;17.004;2023-03-12T09:10:05;4.90;;;2.13;;
46653;SDS011;38960;51.074;17.004;2023-03-12T09:12:31;5.70;;;2.47;;
46653;SDS011;38960;51.074;17.004;2023-03-12T09:14:57;6.73;;;2.00;;
46653;SDS011;38960;51.074;17.004;2023-03-12T09:17:22;6.90;;;2.30;;
46653;SDS011;38960;51.074;17.004;2023-03-12T09:19:48;4.65;;;2.28;;
46653;SDS011;38960;51.074;17.004;2023-03-12T09:22:13;8.93;;;2.50;;
46653;SDS011;38960;51.074;17.004;2023-03-12T09:24:39;7.00;;;2.40;;
46653;SDS011;38960;51.074;17.004;2023-03-12T09:27:04;4.80;;;2.30;;
46653;SDS011;38960;51.074;17.004;2023-03-12T09:29:30;4.43;;;1.90;;
46653;SDS011;38960;51.074;17.004;2023-03-12T09:31:56;8.35;;;2.65;;
46653;SDS011;38960;51.074;17.004;2023-03-12T09:34:22;7.65;;;2.35;;
46653;SDS011;38960;51.074;17.004;2023-03-12T09:36:48;5.18;;;1.98;;
46653;SDS011;38960;51.074;17.004;2023-03-12T09:39:14;5.03;;;1.95;;
46653;SDS011;38960;51.074;17.004;2023-03-12T09:41:39;5.50;;;1.98;;
46653;SDS011;38960;51.074;17.004;2023-03-12T09:44:40;6.13;;;2.65;;
46653;SDS011;38960;51.074;17.004;2023-03-12T09:47:07;6.20;;;2.40;;
46653;SDS011;38960;51.074;17.004;2023-03-12T09:49:41;4.80;;;1.60;;
46653;SDS011;38960;51.074;17.004;2023-03-12T09:52:24;3.83;;;1.48;;
46653;SDS011;38960;51.074;17.004;2023-03-12T09:55:12;3.85;;;1.60;;
46653;SDS011;38960;51.074;17.004;2023-03-12T09:57:39;7.45;;;2.22;;
46653;SDS011;38960;51.074;17.004;2023-03-12T10:00:06;3.67;;;2.03;;
46653;SDS011;38960;51.074;17.004;2023-03-12T10:05:25;6.90;;;2.22;;
46653;SDS011;38960;51.074;17.004;2023-03-12T10:07:59;3.53;;;1.63;;
46653;SDS011;38960;51.074;17.004;2023-03-12T10:21:21;5.88;;;2.17;;
46653;SDS011;38960;51.074;17.004;2023-03-12T10:24:11;6.63;;;2.15;;
46653;SDS011;38960;51.074;17.004;2023-03-12T10:26:43;6.28;;;2.35;;
46653;SDS011;38960;51.074;17.004;2023-03-12T10:29:27;6.57;;;2.45;;
46653;SDS011;38960;51.074;17.004;2023-03-12T10:32:12;8.05;;;2.95;;
46653;SDS011;38960;51.074;17.004;2023-03-12T10:34:57;6.30;;;2.50;;
46653;SDS011;38960;51.074;17.004;2023-03-12T10:37:27;6.53;;;2.40;;
46653;SDS011;38960;51.074;17.004;2023-03-12T10:39:54;10.95;;;2.85;;
46653;SDS011;38960;51.074;17.004;2023-03-12T10:42:21;8.25;;;3.17;;
46653;SDS011;38960;51.074;17.004;2023-03-12T10:44:53;5.63;;;2.47;;
46653;SDS011;38960;51.074;17.004;2023-03-12T10:47:38;6.90;;;2.45;;
46653;SDS011;38960;51.074;17.004;2023-03-12T10:55:09;8.13;;;2.35;;
46653;SDS011;38960;51.074;17.004;2023-03-12T10:57:38;5.85;;;2.20;;
46653;SDS011;38960;51.074;17.004;2023-03-12T11:00:06;4.70;;;2.30;;
46653;SDS011;38960;51.074;17.004;2023-03-12T11:02:42;5.38;;;2.50;;
46653;SDS011;38960;51.074;17.004;2023-03-12T11:05:44;6.07;;;2.38;;
46653;SDS011;38960;51.074;17.004;2023-03-12T11:08:32;11.15;;;2.50;;
46653;SDS011;38960;51.074;17.004;2023-03-12T11:10:59;9.95;;;3.05;;
46653;SDS011;38960;51.074;17.004;2023-03-12T11:13:39;6.63;;;2.50;;
46653;SDS011;38960;51.074;17.004;2023-03-12T11:18:40;5.78;;;2.63;;
46653;SDS011;38960;51.074;17.004;2023-03-12T11:21:20;6.43;;;2.33;;
46653;SDS011;38960;51.074;17.004;2023-03-12T11:26:21;6.10;;;2.40;;
46653;SDS011;38960;51.074;17.004;2023-03-12T11:28:54;5.88;;;2.25;;
46653;SDS011;38960;51.074;17.004;2023-03-12T11:31:30;5.65;;;2.38;;
46653;SDS011;38960;51.074;17.004;2023-03-12T11:33:59;4.65;;;2.20;;
46653;SDS011;38960;51.074;17.004;2023-03-12T11:39:19;5.35;;;2.10;;
46653;SDS011;38960;51.074;17.004;2023-03-12T11:44:31;5.15;;;2.30;;
46653;SDS011;38960;51.074;17.004;2023-03-12T11:49:38;6.60;;;2.47;;
46653;SDS011;38960;51.074;17.004;2023-03-12T11:52:41;4.38;;;2.30;;
46653;SDS011;38960;51.074;17.004;2023-03-12T12:04:12;4.68;;;2.22;;
46653;SDS011;38960;51.074;17.004;2023-03-12T12:20:36;5.95;;;2.20;;
46653;SDS011;38960;51.074;17.004;2023-03-12T12:34:06;5.90;;;2.65;;
46653;SDS011;38960;51.074;17.004;2023-03-12T12:36:34;5.45;;;2.55;;
46653;SDS011;38960;51.074;17.004;2023-03-12T12:39:02;4.40;;;2.20;;
46653;SDS011;38960;51.074;17.004;2023-03-12T12:41:34;6.20;;;2.47;;
46653;SDS011;38960;51.074;17.004;2023-03-12T12:44:08;5.20;;;3.15;;
46653;SDS011;38960;51.074;17.004;2023-03-12T12:46:38;3.83;;;2.20;;
46653;SDS011;38960;51.074;17.004;2023-03-12T12:49:47;6.45;;;2.65;;
46653;SDS011;38960;51.074;17.004;2023-03-12T12:52:06;3.83;;;2.55;;
46653;SDS011;38960;51.074;17.004;2023-03-12T12:57:23;6.22;;;1.95;;
46653;SDS011;38960;51.074;17.004;2023-03-12T13:00:02;5.68;;;2.53;;
46653;SDS011;38960;51.074;17.004;2023-03-12T13:02:38;4.45;;;2.10;;
46653;SDS011;38960;51.074;17.004;2023-03-12T13:05:27;9.10;;;2.50;;
46653;SDS011;38960;51.074;17.004;2023-03-12T13:08:00;4.80;;;2.47;;
46653;SDS011;38960;51.074;17.004;2023-03-12T13:12:57;6.15;;;2.55;;
46653;SDS011;38960;51.074;17.004;2023-03-12T13:21:08;6.18;;;2.60;;
46653;SDS011;38960;51.074;17.004;2023-03-12T13:26:14;4.90;;;2.20;;
46653;SDS011;38960;51.074;17.004;2023-03-12T13:33:48;6.72;;;2.28;;
46653;SDS011;38960;51.074;17.004;2023-03-12T13:44:22;6.80;;;2.47;;
46653;SDS011;38960;51.074;17.004;2023-03-12T13:49:45;5.50;;;2.75;;
46653;SDS011;38960;51.074;17.004;2023-03-12T13:52:25;4.53;;;2.17;;
46653;SDS011;38960;51.074;17.004;2023-03-12T13:57:51;7.32;;;2.72;;
46653;SDS011;38960;51.074;17.004;2023-03-12T14:00:26;4.70;;;2.30;;
46653;SDS011;38960;51.074;17.004;2023-03-12T14:02:57;6.43;;;2.20;;
46653;SDS011;38960;51.074;17.004;2023-03-12T14:05:24;4.13;;;2.10;;
46653;SDS011;38960;51.074;17.004;2023-03-12T14:07:53;6.38;;;2.58;;
46653;SDS011;38960;51.074;17.004;2023-03-12T14:10:26;7.88;;;2.95;;
46653;SDS011;38960;51.074;17.004;2023-03-12T14:15:29;5.43;;;2.47;;
46653;SDS011;38960;51.074;17.004;2023-03-12T14:18:17;4.68;;;2.28;;
46653;SDS011;38960;51.074;17.004;2023-03-12T14:21:06;4.93;;;2.25;;
46653;SDS011;38960;51.074;17.004;2023-03-12T14:23:36;4.03;;;2.10;;
46653;SDS011;38960;51.074;17.004;2023-03-12T14:26:03;7.28;;;2.55;;
46653;SDS011;38960;51.074;17.004;2023-03-12T14:28:31;9.60;;;3.28;;
46653;SDS011;38960;51.074;17.004;2023-03-12T14:33:44;6.45;;;2.88;;
46653;SDS011;38960;51.074;17.004;2023-03-12T14:36:15;7.50;;;4.22;;
46653;SDS011;38960;51.074;17.004;2023-03-12T14:38:44;9.05;;;4.22;;
46653;SDS011;38960;51.074;17.004;2023-03-12T14:41:18;10.00;;;4.85;;
46653;SDS011;38960;51.074;17.004;2023-03-12T14:43:49;8.38;;;5.57;;
46653;SDS011;38960;51.074;17.004;2023-03-12T14:46:17;8.52;;;5.28;;
46653;SDS011;38960;51.074;17.004;2023-03-12T14:48:49;7.35;;;4.03;;
46653;SDS011;38960;51.074;17.004;2023-03-12T14:51:20;8.65;;;4.53;;
46653;SDS011;38960;51.074;17.004;2023-03-12T14:53:51;8.57;;;4.22;;
46653;SDS011;38960;51.074;17.004;2023-03-12T14:58:53;8.65;;;4.57;;
46653;SDS011;38960;51.074;17.004;2023-03-12T15:01:20;6.95;;;4.10;;
46653;SDS011;38960;51.074;17.004;2023-03-12T15:04:04;9.60;;;4.28;;
46653;SDS011;38960;51.074;17.004;2023-03-12T15:06:42;9.02;;;4.32;;
46653;SDS011;38960;51.074;17.004;2023-03-12T15:09:13;6.03;;;3.60;;
46653;SDS011;38960;51.074;17.004;2023-03-12T15:11:41;7.97;;;4.60;;
46653;SDS011;38960;51.074;17.004;2023-03-12T15:14:08;7.47;;;3.95;;
46653;SDS011;38960;51.074;17.004;2023-03-12T15:16:38;7.15;;;3.97;;
46653;SDS011;38960;51.074;17.004;2023-03-12T15:19:04;8.40;;;4.07;;
46653;SDS011;38960;51.074;17.004;2023-03-12T15:21:31;8.40;;;3.60;;
46653;SDS011;38960;51.074;17.004;2023-03-12T15:23:58;9.38;;;4.20;;
46653;SDS011;38960;51.074;17.004;2023-03-12T15:28:56;8.95;;;3.60;;
46653;SDS011;38960;51.074;17.004;2023-03-12T15:31:47;5.45;;;3.05;;
46653;SDS011;38960;51.074;17.004;2023-03-12T15:34:14;8.48;;;4.60;;
46653;SDS011;38960;51.074;17.004;2023-03-12T15:36:52;7.10;;;5.45;;
46653;SDS011;38960;51.074;17.004;2023-03-12T15:39:26;6.47;;;3.30;;
46653;SDS011;38960;51.074;17.004;2023-03-12T15:42:15;7.55;;;3.28;;
46653;SDS011;38960;51.074;17.004;2023-03-12T15:44:47;7.55;;;3.40;;
46653;SDS011;38960;51.074;17.004;2023-03-12T15:47:21;5.53;;;2.83;;
46653;SDS011;38960;51.074;17.004;2023-03-12T15:49:53;7.03;;;3.88;;
46653;SDS011;38960;51.074;17.004;2023-03-12T15:52:27;8.20;;;3.30;;
46653;SDS011;38960;51.074;17.004;2023-03-12T15:55:03;6.07;;;2.90;;
46653;SDS011;38960;51.074;17.004;2023-03-12T15:57:44;8.07;;;3.10;;
46653;SDS011;38960;51.074;17.004;2023-03-12T16:00:14;5.40;;;2.90;;
46653;SDS011;38960;51.074;17.004;2023-03-12T16:05:12;8.57;;;4.82;;
46653;SDS011;38960;51.074;17.004;2023-03-12T16:07:37;13.45;;;5.60;;
46653;SDS011;38960;51.074;17.004;2023-03-12T16:10:03;7.60;;;4.10;;
46653;SDS011;38960;51.074;17.004;2023-03-12T16:12:29;6.55;;;2.90;;
46653;SDS011;38960;51.074;17.004;2023-03-12T16:14:55;6.38;;;3.55;;
46653;SDS011;38960;51.074;17.004;2023-03-12T16:17:21;7.22;;;3.72;;
46653;SDS011;38960;51.074;17.004;2023-03-12T16:19:47;6.38;;;3.13;;
46653;SDS011;38960;51.074;17.004;2023-03-12T16:22:12;6.90;;;3.40;;
46653;SDS011;38960;51.074;17.004;2023-03-12T16:24:38;11.40;;;4.18;;
46653;SDS011;38960;51.074;17.004;2023-03-12T16:27:04;7.13;;;3.58;;
46653;SDS011;38960;51.074;17.004;2023-03-12T16:29:34;7.93;;;3.90;;
46653;SDS011;38960;51.074;17.004;2023-03-12T16:32:01;8.98;;;5.05;;
46653;SDS011;38960;51.074;17.004;2023-03-12T16:34:34;10.25;;;5.20;;
46653;SDS011;38960;51.074;17.004;2023-03-12T16:37:00;13.55;;;6.05;;
46653;SDS011;38960;51.074;17.004;2023-03-12T16:39:25;11.65;;;5.25;;
46653;SDS011;38960;51.074;17.004;2023-03-12T16:41:57;9.97;;;5.67;;
46653;SDS011;38960;51.074;17.004;2023-03-12T16:44:29;10.07;;;5.38;;
46653;SDS011;38960;51.074;17.004;2023-03-12T16:46:56;11.35;;;6.00;;
46653;SDS011;38960;51.074;17.004;2023-03-12T16:49:22;12.95;;;6.47;;